sensor_id;sensor_type;location;lat;lon;timestamp;P1;durP1;ratioP1;P2;durP2;ratioP2
17449;SDS011;8842;51.244;7.102;2022-10-22T00:01:56;6.20;;;5.90;;
17449;SDS011;8842;51.244;7.102;2022-10-22T00:07:00;6.20;;;5.90;;
17449;SDS011;8842;51.244;7.102;2022-10-22T00:12:12;6.50;;;6.20;;
17449;SDS011;8842;51.244;7.102;2022-10-22T00:22:29;6.30;;;6.00;;
17449;SDS011;8842;51.244;7.102;2022-10-22T00:32:44;6.30;;;6.00;;
17449;SDS011;8842;51.244;7.102;2022-10-22T00:37:48;6.20;;;5.90;;
17449;SDS011;8842;51.244;7.102;2022-10-22T00:42:52;6.30;;;6.00;;
17449;SDS011;8842;51.244;7.102;2022-10-22T00:53:09;6.37;;;6.07;;
17449;SDS011;8842;51.244;7.102;2022-10-22T00:58:22;6.30;;;6.00;;
17449;SDS011;8842;51.244;7.102;2022-10-22T01:03:29;6.20;;;5.90;;
17449;SDS011;8842;51.244;7.102;2022-10-22T01:08:36;6.30;;;6.00;;
17449;SDS011;8842;51.244;7.102;2022-10-22T01:13:50;6.20;;;5.90;;
17449;SDS011;8842;51.244;7.102;2022-10-22T01:19:06;6.20;;;5.90;;
17449;SDS011;8842;51.244;7.102;2022-10-22T01:29:36;6.00;;;5.70;;
17449;SDS011;8842;51.244;7.102;2022-10-22T01:39:55;6.10;;;5.80;;
17449;SDS011;8842;51.244;7.102;2022-10-22T01:50:15;6.00;;;5.70;;
17449;SDS011;8842;51.244;7.102;2022-10-22T02:00:39;5.70;;;5.50;;
17449;SDS011;8842;51.244;7.102;2022-10-22T02:05:48;5.97;;;5.67;;
17449;SDS011;8842;51.244;7.102;2022-10-22T02:10:55;6.33;;;6.03;;
17449;SDS011;8842;51.244;7.102;2022-10-22T02:16:12;6.20;;;5.90;;
17449;SDS011;8842;51.244;7.102;2022-10-22T02:21:24;6.00;;;5.70;;
17449;SDS011;8842;51.244;7.102;2022-10-22T02:31:42;6.20;;;5.90;;
17449;SDS011;8842;51.244;7.102;2022-10-22T02:36:49;6.10;;;5.80;;
17449;SDS011;8842;51.244;7.102;2022-10-22T02:47:05;6.20;;;5.90;;
17449;SDS011;8842;51.244;7.102;2022-10-22T02:57:21;6.50;;;6.20;;
17449;SDS011;8842;51.244;7.102;2022-10-22T03:07:36;6.10;;;5.80;;
17449;SDS011;8842;51.244;7.102;2022-10-22T03:12:40;5.97;;;5.67;;
17449;SDS011;8842;51.244;7.102;2022-10-22T03:22:55;5.40;;;5.20;;
17449;SDS011;8842;51.244;7.102;2022-10-22T03:28:08;5.80;;;5.50;;
17449;SDS011;8842;51.244;7.102;2022-10-22T03:38:26;5.50;;;5.30;;
17449;SDS011;8842;51.244;7.102;2022-10-22T03:48:44;5.50;;;5.30;;
17449;SDS011;8842;51.244;7.102;2022-10-22T03:59:01;5.47;;;5.27;;
17449;SDS011;8842;51.244;7.102;2022-10-22T04:04:06;6.17;;;5.87;;
17449;SDS011;8842;51.244;7.102;2022-10-22T04:09:10;6.00;;;5.70;;
17449;SDS011;8842;51.244;7.102;2022-10-22T04:19:25;6.00;;;5.70;;
17449;SDS011;8842;51.244;7.102;2022-10-22T04:29:40;5.80;;;5.60;;
17449;SDS011;8842;51.244;7.102;2022-10-22T04:39:56;6.20;;;5.90;;
17449;SDS011;8842;51.244;7.102;2022-10-22T04:50:11;5.77;;;5.57;;
17449;SDS011;8842;51.244;7.102;2022-10-22T05:00:26;6.33;;;6.03;;
17449;SDS011;8842;51.244;7.102;2022-10-22T05:05:31;6.13;;;5.83;;
17449;SDS011;8842;51.244;7.102;2022-10-22T05:10:45;6.17;;;5.87;;
17449;SDS011;8842;51.244;7.102;2022-10-22T05:15:49;6.40;;;6.10;;
17449;SDS011;8842;51.244;7.102;2022-10-22T05:21:04;6.30;;;6.00;;
17449;SDS011;8842;51.244;7.102;2022-10-22T05:26:11;6.40;;;6.10;;
17449;SDS011;8842;51.244;7.102;2022-10-22T05:31:23;6.40;;;6.10;;
17449;SDS011;8842;51.244;7.102;2022-10-22T05:41:38;6.27;;;5.97;;
17449;SDS011;8842;51.244;7.102;2022-10-22T05:51:54;6.10;;;5.80;;
17449;SDS011;8842;51.244;7.102;2022-10-22T06:02:09;6.60;;;6.30;;
17449;SDS011;8842;51.244;7.102;2022-10-22T06:07:14;5.80;;;5.60;;
17449;SDS011;8842;51.244;7.102;2022-10-22T06:12:19;5.97;;;5.67;;
17449;SDS011;8842;51.244;7.102;2022-10-22T06:17:23;6.10;;;5.80;;
17449;SDS011;8842;51.244;7.102;2022-10-22T06:27:38;5.97;;;5.67;;
17449;SDS011;8842;51.244;7.102;2022-10-22T06:37:53;6.10;;;5.80;;
17449;SDS011;8842;51.244;7.102;2022-10-22T06:42:58;5.67;;;5.37;;
17449;SDS011;8842;51.244;7.102;2022-10-22T06:53:13;4.43;;;4.23;;
17449;SDS011;8842;51.244;7.102;2022-10-22T07:03:28;5.27;;;5.07;;
17449;SDS011;8842;51.244;7.102;2022-10-22T07:08:33;5.63;;;5.43;;
17449;SDS011;8842;51.244;7.102;2022-10-22T07:18:48;5.60;;;5.40;;
17449;SDS011;8842;51.244;7.102;2022-10-22T07:29:09;4.90;;;4.70;;
17449;SDS011;8842;51.244;7.102;2022-10-22T07:39:25;4.90;;;4.70;;
17449;SDS011;8842;51.244;7.102;2022-10-22T07:49:41;5.10;;;4.90;;
17449;SDS011;8842;51.244;7.102;2022-10-22T07:54:45;4.53;;;4.33;;
17449;SDS011;8842;51.244;7.102;2022-10-22T07:59:57;4.83;;;4.63;;
17449;SDS011;8842;51.244;7.102;2022-10-22T08:05:01;5.03;;;4.83;;
17449;SDS011;8842;51.244;7.102;2022-10-22T08:10:07;4.80;;;4.60;;
17449;SDS011;8842;51.244;7.102;2022-10-22T08:15:12;4.70;;;4.50;;
17449;SDS011;8842;51.244;7.102;2022-10-22T08:25:27;4.60;;;4.40;;
17449;SDS011;8842;51.244;7.102;2022-10-22T08:35:46;4.70;;;4.50;;
17449;SDS011;8842;51.244;7.102;2022-10-22T08:40:52;4.90;;;4.70;;
17449;SDS011;8842;51.244;7.102;2022-10-22T08:51:14;4.83;;;4.63;;
17449;SDS011;8842;51.244;7.102;2022-10-22T09:01:34;4.30;;;4.10;;
17449;SDS011;8842;51.244;7.102;2022-10-22T09:06:40;4.37;;;4.17;;
17449;SDS011;8842;51.244;7.102;2022-10-22T09:11:46;4.20;;;4.00;;
17449;SDS011;8842;51.244;7.102;2022-10-22T09:17:04;3.80;;;3.63;;
17449;SDS011;8842;51.244;7.102;2022-10-22T09:22:26;3.80;;;3.70;;
17449;SDS011;8842;51.244;7.102;2022-10-22T09:32:44;4.10;;;3.90;;
17449;SDS011;8842;51.244;7.102;2022-10-22T09:37:49;3.50;;;3.40;;
17449;SDS011;8842;51.244;7.102;2022-10-22T09:42:55;4.03;;;3.87;;
17449;SDS011;8842;51.244;7.102;2022-10-22T09:53:16;4.00;;;3.90;;
17449;SDS011;8842;51.244;7.102;2022-10-22T10:03:32;4.40;;;4.20;;
17449;SDS011;8842;51.244;7.102;2022-10-22T10:13:49;4.33;;;4.13;;
17449;SDS011;8842;51.244;7.102;2022-10-22T10:24:15;4.20;;;4.00;;
17449;SDS011;8842;51.244;7.102;2022-10-22T10:29:40;4.40;;;4.20;;
17449;SDS011;8842;51.244;7.102;2022-10-22T10:40:02;5.00;;;4.80;;
17449;SDS011;8842;51.244;7.102;2022-10-22T10:50:28;3.30;;;3.20;;
17449;SDS011;8842;51.244;7.102;2022-10-22T11:00:46;4.20;;;4.00;;
17449;SDS011;8842;51.244;7.102;2022-10-22T11:11:06;3.90;;;3.80;;
17449;SDS011;8842;51.244;7.102;2022-10-22T11:21:28;4.30;;;4.10;;
17449;SDS011;8842;51.244;7.102;2022-10-22T11:31:47;4.30;;;4.10;;
17449;SDS011;8842;51.244;7.102;2022-10-22T11:36:54;3.90;;;3.80;;
17449;SDS011;8842;51.244;7.102;2022-10-22T11:47:16;4.60;;;4.40;;
17449;SDS011;8842;51.244;7.102;2022-10-22T11:57:35;4.30;;;4.10;;
17449;SDS011;8842;51.244;7.102;2022-10-22T12:07:52;4.80;;;4.60;;
17449;SDS011;8842;51.244;7.102;2022-10-22T12:13:10;5.13;;;4.93;;
17449;SDS011;8842;51.244;7.102;2022-10-22T12:23:28;5.00;;;4.80;;
17449;SDS011;8842;51.244;7.102;2022-10-22T12:33:54;5.77;;;5.57;;
17449;SDS011;8842;51.244;7.102;2022-10-22T12:38:59;5.30;;;5.10;;
17449;SDS011;8842;51.244;7.102;2022-10-22T12:49:16;5.00;;;4.80;;
17449;SDS011;8842;51.244;7.102;2022-10-22T12:59:35;5.33;;;5.03;;
17449;SDS011;8842;51.244;7.102;2022-10-22T13:04:41;5.10;;;4.90;;
17449;SDS011;8842;51.244;7.102;2022-10-22T13:09:47;5.40;;;5.20;;
17449;SDS011;8842;51.244;7.102;2022-10-22T13:15:21;5.40;;;5.20;;
17449;SDS011;8842;51.244;7.102;2022-10-22T13:25:55;5.47;;;5.27;;
17449;SDS011;8842;51.244;7.102;2022-10-22T13:36:12;5.40;;;5.20;;
17449;SDS011;8842;51.244;7.102;2022-10-22T13:46:32;5.47;;;5.27;;
17449;SDS011;8842;51.244;7.102;2022-10-22T13:56:49;6.37;;;6.07;;
17449;SDS011;8842;51.244;7.102;2022-10-22T14:07:07;6.40;;;6.10;;
17449;SDS011;8842;51.244;7.102;2022-10-22T14:12:14;6.40;;;6.10;;
17449;SDS011;8842;51.244;7.102;2022-10-22T14:17:26;6.40;;;6.10;;
17449;SDS011;8842;51.244;7.102;2022-10-22T14:27:45;6.30;;;6.00;;
17449;SDS011;8842;51.244;7.102;2022-10-22T14:38:00;6.70;;;6.40;;
17449;SDS011;8842;51.244;7.102;2022-10-22T14:48:18;6.50;;;6.20;;
17449;SDS011;8842;51.244;7.102;2022-10-22T14:58:33;6.40;;;6.10;;
17449;SDS011;8842;51.244;7.102;2022-10-22T15:03:37;6.73;;;6.43;;
17449;SDS011;8842;51.244;7.102;2022-10-22T15:13:52;6.07;;;5.77;;
17449;SDS011;8842;51.244;7.102;2022-10-22T15:24:07;6.10;;;5.80;;
17449;SDS011;8842;51.244;7.102;2022-10-22T15:34:23;6.47;;;6.13;;
17449;SDS011;8842;51.244;7.102;2022-10-22T15:39:29;6.13;;;5.83;;
17449;SDS011;8842;51.244;7.102;2022-10-22T15:49:45;6.60;;;6.20;;
17449;SDS011;8842;51.244;7.102;2022-10-22T16:00:00;6.33;;;6.03;;
17449;SDS011;8842;51.244;7.102;2022-10-22T16:05:05;6.30;;;6.00;;
17449;SDS011;8842;51.244;7.102;2022-10-22T16:10:18;6.17;;;5.87;;
17449;SDS011;8842;51.244;7.102;2022-10-22T16:20:38;6.10;;;5.80;;
17449;SDS011;8842;51.244;7.102;2022-10-22T16:30:53;6.30;;;6.00;;
17449;SDS011;8842;51.244;7.102;2022-10-22T16:41:09;5.73;;;5.53;;
17449;SDS011;8842;51.244;7.102;2022-10-22T16:51:26;6.40;;;6.10;;
17449;SDS011;8842;51.244;7.102;2022-10-22T17:01:42;6.37;;;6.07;;
17449;SDS011;8842;51.244;7.102;2022-10-22T17:11:57;6.40;;;6.10;;
17449;SDS011;8842;51.244;7.102;2022-10-22T17:22:12;6.60;;;6.30;;
17449;SDS011;8842;51.244;7.102;2022-10-22T17:32:27;7.00;;;6.70;;
17449;SDS011;8842;51.244;7.102;2022-10-22T17:37:32;6.97;;;6.67;;
17449;SDS011;8842;51.244;7.102;2022-10-22T17:47:47;6.80;;;6.50;;
17449;SDS011;8842;51.244;7.102;2022-10-22T17:58:04;6.77;;;6.47;;
17449;SDS011;8842;51.244;7.102;2022-10-22T18:03:08;7.30;;;7.00;;
17449;SDS011;8842;51.244;7.102;2022-10-22T18:13:25;6.97;;;6.67;;
17449;SDS011;8842;51.244;7.102;2022-10-22T18:23:40;5.30;;;5.10;;
17449;SDS011;8842;51.244;7.102;2022-10-22T18:33:55;5.43;;;5.23;;
17449;SDS011;8842;51.244;7.102;2022-10-22T18:39:00;6.60;;;6.30;;
17449;SDS011;8842;51.244;7.102;2022-10-22T18:49:16;7.40;;;7.10;;
17449;SDS011;8842;51.244;7.102;2022-10-22T18:59:34;11.67;;;6.80;;
17449;SDS011;8842;51.244;7.102;2022-10-22T19:04:39;6.50;;;6.20;;
17449;SDS011;8842;51.244;7.102;2022-10-22T19:09:43;6.50;;;6.20;;
17449;SDS011;8842;51.244;7.102;2022-10-22T19:14:47;6.20;;;5.90;;
17449;SDS011;8842;51.244;7.102;2022-10-22T19:25:02;6.30;;;6.00;;
17449;SDS011;8842;51.244;7.102;2022-10-22T19:35:19;6.50;;;6.20;;
17449;SDS011;8842;51.244;7.102;2022-10-22T19:45:38;6.80;;;6.50;;
17449;SDS011;8842;51.244;7.102;2022-10-22T19:55:53;6.30;;;6.00;;
17449;SDS011;8842;51.244;7.102;2022-10-22T20:06:14;6.60;;;6.30;;
17449;SDS011;8842;51.244;7.102;2022-10-22T20:11:20;6.60;;;6.23;;
17449;SDS011;8842;51.244;7.102;2022-10-22T20:21:36;6.40;;;6.10;;
17449;SDS011;8842;51.244;7.102;2022-10-22T20:31:54;6.47;;;6.17;;
17449;SDS011;8842;51.244;7.102;2022-10-22T20:36:59;6.50;;;6.20;;
17449;SDS011;8842;51.244;7.102;2022-10-22T20:47:14;6.57;;;6.07;;
17449;SDS011;8842;51.244;7.102;2022-10-22T20:57:29;6.40;;;6.10;;
17449;SDS011;8842;51.244;7.102;2022-10-22T21:07:44;6.53;;;6.13;;
17449;SDS011;8842;51.244;7.102;2022-10-22T21:12:48;6.00;;;5.70;;
17449;SDS011;8842;51.244;7.102;2022-10-22T21:18:00;6.20;;;5.90;;
17449;SDS011;8842;51.244;7.102;2022-10-22T21:28:15;6.70;;;6.40;;
17449;SDS011;8842;51.244;7.102;2022-10-22T21:38:31;6.20;;;5.90;;
17449;SDS011;8842;51.244;7.102;2022-10-22T21:48:53;6.70;;;6.40;;
17449;SDS011;8842;51.244;7.102;2022-10-22T21:59:09;5.80;;;5.60;;
17449;SDS011;8842;51.244;7.102;2022-10-22T22:04:14;6.10;;;5.80;;
17449;SDS011;8842;51.244;7.102;2022-10-22T22:09:18;5.80;;;5.60;;
17449;SDS011;8842;51.244;7.102;2022-10-22T22:14:22;6.10;;;5.80;;
17449;SDS011;8842;51.244;7.102;2022-10-22T22:24:37;5.70;;;5.50;;
17449;SDS011;8842;51.244;7.102;2022-10-22T22:34:52;6.00;;;5.70;;
17449;SDS011;8842;51.244;7.102;2022-10-22T22:39:57;6.10;;;5.80;;
17449;SDS011;8842;51.244;7.102;2022-10-22T22:50:12;7.00;;;6.60;;
17449;SDS011;8842;51.244;7.102;2022-10-22T23:00:28;6.23;;;5.93;;
17449;SDS011;8842;51.244;7.102;2022-10-22T23:05:34;6.20;;;5.90;;
17449;SDS011;8842;51.244;7.102;2022-10-22T23:15:49;5.97;;;5.67;;
17449;SDS011;8842;51.244;7.102;2022-10-22T23:26:04;5.90;;;5.60;;
17449;SDS011;8842;51.244;7.102;2022-10-22T23:36:21;6.13;;;5.83;;
17449;SDS011;8842;51.244;7.102;2022-10-22T23:46:36;6.23;;;5.93;;
17449;SDS011;8842;51.244;7.102;2022-10-22T23:56:51;6.33;;;6.03;;
